createdAt,value
2019-04-03T00:02:07.424Z,41.64
2019-04-03T00:04:43.810Z,40.87
2019-04-03T00:07:13.364Z,40.79
2019-04-03T00:09:42.583Z,40.44
2019-04-03T00:12:11.650Z,42.10
2019-04-03T00:14:42.988Z,41.12
2019-04-03T00:17:16.310Z,42.54
2019-04-03T00:19:47.687Z,42.64
2019-04-03T00:22:17.283Z,43.35
2019-04-03T00:24:47.940Z,43.19
2019-04-03T00:27:18.690Z,42.91
2019-04-03T00:29:50.511Z,43.15
2019-04-03T00:32:20.232Z,42.52
2019-04-03T00:34:49.561Z,42.25
2019-04-03T00:37:19.718Z,42.73
2019-04-03T00:39:49.856Z,43.64
2019-04-03T00:42:18.893Z,43.26
2019-04-03T00:44:49.065Z,42.93
2019-04-03T00:47:21.713Z,43.04
2019-04-03T00:49:52.918Z,43.40
2019-04-03T00:52:21.984Z,43.91
2019-04-03T00:54:51.054Z,43.77
2019-04-03T00:57:21.641Z,42.54
2019-04-03T00:59:54.707Z,42.82
2019-04-03T01:02:27.839Z,44.20
2019-04-03T01:04:58.035Z,45.17
2019-04-03T01:07:31.823Z,45.43
2019-04-03T01:10:03.416Z,45.53
2019-04-03T01:12:32.600Z,46.23
2019-04-03T01:15:02.821Z,46.27
2019-04-03T01:17:34.929Z,47.09
2019-04-03T01:20:06.395Z,47.46
2019-04-03T01:22:37.273Z,48.93
2019-04-03T01:25:11.702Z,47.93
2019-04-03T01:27:43.796Z,51.28
2019-04-03T01:30:13.977Z,51.28
2019-04-03T01:32:46.635Z,52.19
2019-04-03T01:35:18.152Z,52.67
2019-04-03T01:37:50.224Z,52.79
2019-04-03T01:40:21.090Z,53.02
2019-04-03T01:42:52.580Z,53.42
2019-04-03T01:45:21.005Z,53.50
2019-04-03T01:47:52.879Z,53.52
2019-04-03T01:50:22.481Z,53.18
2019-04-03T01:52:53.354Z,53.76
2019-04-03T01:55:24.403Z,53.66
2019-04-03T01:57:56.473Z,54.09
2019-04-03T02:00:25.836Z,53.80
2019-04-03T02:02:56.098Z,53.12
2019-04-03T02:05:26.332Z,53.81
2019-04-03T02:07:59.815Z,53.09
2019-04-03T02:10:28.911Z,53.51
2019-04-03T02:12:58.254Z,54.78
2019-04-03T02:15:27.490Z,54.55
2019-04-03T02:17:56.583Z,54.81
2019-04-03T02:20:33.044Z,55.09
2019-04-03T02:23:02.205Z,55.29
2019-04-03T02:25:32.717Z,56.34
2019-04-03T02:28:11.006Z,56.71
2019-04-03T02:30:45.056Z,57.32
2019-04-03T02:33:12.422Z,58.22
2019-04-03T02:35:41.522Z,57.78
2019-04-03T02:38:10.638Z,58.73
2019-04-03T02:40:39.697Z,58.76
2019-04-03T02:43:09.225Z,59.98
2019-04-03T02:45:42.325Z,59.10
2019-04-03T02:48:15.178Z,58.87
2019-04-03T02:51:03.937Z,59.89
2019-04-03T02:53:33.120Z,59.88
2019-04-03T02:56:06.998Z,60.17
2019-04-03T02:58:39.067Z,61.20
2019-04-03T03:01:08.198Z,61.67
2019-04-03T03:03:37.539Z,63.73
2019-04-03T03:06:09.269Z,64.63
2019-04-03T03:08:41.921Z,65.52
2019-04-03T03:11:12.506Z,65.89
2019-04-03T03:13:45.480Z,65.38
2019-04-03T03:16:17.913Z,65.90
2019-04-03T03:18:45.726Z,65.88
2019-04-03T03:21:14.911Z,66.54
2019-04-03T03:23:43.958Z,67.37
2019-04-03T03:26:13.156Z,66.65
2019-04-03T03:28:46.841Z,67.59
2019-04-03T03:31:44.615Z,67.94
2019-04-03T03:34:00.533Z,69.57
2019-04-03T03:36:26.499Z,69.90
2019-04-03T03:38:55.914Z,69.90
2019-04-03T03:41:28.654Z,70.70
2019-04-03T03:43:58.703Z,70.61
2019-04-03T03:46:29.356Z,71.77
2019-04-03T03:48:58.795Z,71.95
2019-04-03T03:51:31.128Z,71.53
2019-04-03T03:54:02.379Z,71.68
2019-04-03T03:56:34.531Z,72.12
2019-04-03T03:59:03.799Z,72.21
2019-04-03T04:01:34.591Z,72.54
2019-04-03T04:04:03.833Z,72.50
2019-04-03T04:06:35.916Z,73.56
2019-04-03T04:09:07.061Z,73.38
2019-04-03T04:11:38.680Z,72.77
2019-04-03T04:14:14.009Z,73.36
2019-04-03T04:16:43.192Z,73.75
2019-04-03T04:19:12.553Z,74.47
2019-04-03T04:21:45.147Z,74.42
2019-04-03T04:24:18.069Z,74.68
2019-04-03T04:26:49.807Z,74.61
2019-04-03T04:29:23.005Z,75.29
2019-04-03T04:31:52.154Z,75.26
2019-04-03T04:34:23.913Z,75.39
2019-04-03T04:36:55.401Z,75.52
2019-04-03T04:39:26.595Z,75.90
2019-04-03T04:41:56.394Z,76.29
2019-04-03T04:44:25.434Z,76.67
2019-04-03T04:46:56.625Z,76.61
2019-04-03T04:49:29.951Z,75.04
2019-04-03T04:52:00.545Z,74.24
2019-04-03T04:54:31.385Z,73.77
2019-04-03T04:57:01.002Z,74.49
2019-04-03T04:59:30.211Z,74.54
2019-04-03T05:02:02.641Z,74.90
2019-04-03T05:04:30.189Z,73.39
2019-04-03T05:07:00.129Z,73.75
2019-04-03T05:09:34.816Z,73.54
2019-04-03T05:12:09.382Z,74.26
2019-04-03T05:14:41.157Z,73.59
2019-04-03T05:17:15.299Z,73.87
2019-04-03T05:19:44.342Z,74.66
2019-04-03T05:22:16.202Z,75.49
2019-04-03T05:24:47.005Z,76.22
2019-04-03T05:27:19.008Z,74.76
2019-04-03T05:29:53.616Z,74.16
2019-04-03T05:32:22.950Z,75.09
2019-04-03T05:34:52.085Z,74.85
2019-04-03T05:37:21.384Z,75.10
2019-04-03T05:39:50.737Z,76.14
2019-04-03T05:42:46.242Z,76.10
2019-04-03T05:45:15.465Z,74.66
2019-04-03T05:47:44.556Z,74.45
2019-04-03T05:50:17.176Z,73.89
2019-04-03T05:52:58.506Z,74.93
2019-04-03T05:55:27.558Z,74.52
2019-04-03T05:57:56.994Z,73.74
2019-04-03T06:00:31.684Z,72.32
2019-04-03T06:03:00.803Z,72.30
2019-04-03T06:05:30.217Z,72.59
2019-04-03T06:07:59.317Z,72.07
2019-04-03T06:10:32.357Z,71.23
2019-04-03T06:13:05.150Z,71.14
2019-04-03T06:15:36.387Z,72.42
2019-04-03T06:18:08.307Z,72.46
2019-04-03T06:20:37.494Z,73.08
2019-04-03T06:23:07.958Z,71.92
2019-04-03T06:25:39.306Z,73.14
2019-04-03T06:28:08.481Z,71.71
2019-04-03T06:30:39.102Z,73.12
2019-04-03T06:33:08.228Z,74.20
2019-04-03T06:35:47.945Z,74.95
2019-04-03T06:38:27.073Z,75.46
2019-04-03T06:40:59.385Z,74.76
2019-04-03T06:43:30.835Z,75.54
2019-04-03T06:46:01.494Z,74.90
2019-04-03T06:48:34.625Z,74.46
2019-04-03T06:51:03.810Z,71.90
2019-04-03T06:53:33.220Z,72.20
2019-04-03T06:56:08.697Z,70.62
2019-04-03T06:58:50.176Z,70.89
2019-04-03T07:01:20.187Z,70.18
2019-04-03T07:03:50.632Z,71.11
2019-04-03T07:06:21.296Z,72.11
2019-04-03T07:08:50.403Z,71.27
2019-04-03T07:11:23.673Z,71.49
2019-04-03T07:13:54.341Z,70.91
2019-04-03T07:16:23.535Z,71.97
2019-04-03T07:18:52.682Z,71.09
2019-04-03T07:21:22.821Z,70.65
2019-04-03T07:23:57.119Z,69.38
2019-04-03T07:26:31.828Z,70.43
2019-04-03T07:29:00.926Z,71.87
2019-04-03T07:31:29.966Z,71.38
2019-04-03T07:34:01.875Z,71.51
2019-04-03T07:36:32.858Z,70.49
2019-04-03T07:39:10.399Z,70.65
2019-04-03T07:41:41.726Z,71.48
2019-04-03T07:44:14.321Z,71.17
2019-04-03T07:46:43.680Z,70.82
2019-04-03T07:49:20.394Z,71.21
2019-04-03T07:51:49.835Z,70.93
2019-04-03T07:54:23.067Z,68.64
2019-04-03T07:56:56.420Z,66.94
2019-04-03T07:59:33.491Z,65.87
2019-04-03T08:02:11.870Z,69.52
2019-04-03T08:04:45.456Z,70.54
2019-04-03T08:07:15.354Z,70.07
2019-04-03T08:09:44.635Z,71.14
2019-04-03T08:12:13.997Z,71.61
2019-04-03T08:14:43.107Z,71.20
2019-04-03T08:17:13.581Z,70.38
2019-04-03T08:19:46.126Z,70.01
2019-04-03T08:22:20.775Z,71.88
2019-04-03T08:24:52.774Z,72.16
2019-04-03T08:27:23.746Z,71.74
2019-04-03T08:29:56.337Z,72.37
2019-04-03T08:32:34.567Z,72.04
2019-04-03T08:35:21.165Z,71.13
2019-04-03T08:37:46.002Z,70.84
2019-04-03T08:40:19.634Z,70.84
2019-04-03T08:42:49.939Z,69.11
2019-04-03T08:45:21.180Z,70.68
2019-04-03T08:47:50.097Z,71.47
2019-04-03T08:50:21.014Z,71.52
2019-04-03T08:52:53.861Z,69.89
2019-04-03T08:55:25.977Z,71.36
2019-04-03T08:57:55.220Z,72.03
2019-04-03T09:00:24.292Z,71.90
2019-04-03T09:02:54.651Z,70.76
2019-04-03T09:05:37.530Z,71.84
2019-04-03T09:08:06.520Z,72.05
2019-04-03T09:10:37.094Z,70.77
2019-04-03T09:13:16.861Z,70.01
2019-04-03T09:15:43.586Z,70.23
2019-04-03T09:18:14.199Z,71.14
2019-04-03T09:20:44.947Z,70.25
2019-04-03T09:23:13.948Z,69.49
2019-04-03T09:25:43.050Z,67.51
2019-04-03T09:28:16.800Z,68.08
2019-04-03T09:30:47.933Z,68.23
2019-04-03T09:33:16.968Z,66.31
2019-04-03T09:35:46.552Z,67.44
2019-04-03T09:38:15.632Z,65.87
2019-04-03T09:40:48.296Z,66.14
2019-04-03T09:43:22.728Z,66.61
2019-04-03T09:45:52.294Z,66.39
2019-04-03T09:48:21.402Z,65.57
2019-04-03T09:50:50.443Z,66.37
2019-04-03T09:53:19.684Z,65.46
2019-04-03T09:55:48.910Z,64.64
2019-04-03T09:58:22.151Z,65.16
2019-04-03T10:00:55.741Z,66.09
2019-04-03T10:03:24.828Z,63.88
2019-04-03T10:05:55.318Z,63.13
2019-04-03T10:08:28.148Z,62.33
2019-04-03T10:10:57.200Z,62.21
2019-04-03T10:13:27.397Z,61.69
2019-04-03T10:15:59.320Z,61.61
2019-04-03T10:18:32.533Z,61.21
2019-04-03T10:21:04.663Z,60.34
2019-04-03T10:23:35.483Z,60.49
2019-04-03T10:26:07.602Z,60.72
2019-04-03T10:28:42.109Z,59.97
2019-04-03T10:31:16.150Z,59.38
2019-04-03T10:33:45.611Z,60.35
2019-04-03T10:36:17.660Z,60.04
2019-04-03T10:38:50.117Z,58.54
2019-04-03T10:41:21.644Z,58.88
2019-04-03T10:43:51.064Z,58.98
2019-04-03T10:46:24.574Z,58.01
2019-04-03T10:49:00.918Z,57.67
2019-04-03T10:51:32.937Z,57.13
2019-04-03T10:54:02.092Z,57.34
2019-04-03T10:56:35.390Z,56.45
2019-04-03T10:59:11.817Z,55.31
2019-04-03T11:01:37.776Z,54.58
2019-04-03T11:04:09.039Z,54.42
2019-04-03T11:06:41.175Z,53.63
2019-04-03T11:09:16.081Z,52.86
2019-04-03T11:11:46.684Z,53.90
2019-04-03T11:14:17.438Z,52.87
2019-04-03T11:16:49.558Z,52.25
2019-04-03T11:19:19.827Z,48.79
2019-04-03T11:21:57.035Z,51.06
2019-04-03T11:24:27.131Z,52.98
2019-04-03T11:26:58.019Z,52.09
2019-04-03T11:29:28.452Z,48.66
2019-04-03T11:31:59.782Z,49.33
2019-04-03T11:34:29.001Z,48.34
2019-04-03T11:37:00.502Z,48.29
2019-04-03T11:39:29.270Z,47.97
2019-04-03T11:42:02.347Z,48.76
2019-04-03T11:44:32.829Z,48.33
2019-04-03T11:47:03.594Z,48.51
2019-04-03T11:49:35.792Z,53.56
2019-04-03T11:52:05.443Z,57.53
2019-04-03T11:54:39.575Z,60.91
2019-04-03T11:57:08.812Z,59.42
2019-04-03T11:59:39.660Z,66.08
2019-04-03T12:02:10.566Z,64.87
2019-04-03T12:04:40.230Z,68.36
2019-04-03T12:07:14.031Z,65.72
2019-04-03T12:09:44.316Z,66.33
2019-04-03T12:12:13.381Z,66.63
2019-04-03T12:14:57.903Z,68.73
2019-04-03T12:17:29.111Z,71.03
2019-04-03T12:19:58.007Z,68.75
2019-04-03T12:22:30.575Z,68.87
2019-04-03T12:24:59.686Z,70.14
2019-04-03T12:27:35.532Z,70.29
2019-04-03T12:30:07.274Z,69.98
2019-04-03T12:32:47.338Z,69.21
2019-04-03T12:35:13.983Z,67.79
2019-04-03T12:37:45.741Z,69.83
2019-04-03T12:40:19.565Z,68.14
2019-04-03T12:42:49.100Z,68.28
2019-04-03T12:45:25.724Z,68.36
2019-04-03T12:47:57.928Z,65.91
2019-04-03T12:50:28.567Z,66.95
2019-04-03T12:53:01.013Z,67.79
2019-04-03T12:55:30.287Z,66.88
2019-04-03T12:58:02.333Z,65.41
2019-04-03T13:00:41.169Z,67.42
2019-04-03T13:03:10.388Z,67.21
2019-04-03T13:05:41.069Z,67.80
2019-04-03T13:08:15.187Z,69.25
2019-04-03T13:10:47.872Z,69.73
2019-04-03T13:13:18.325Z,65.96
2019-04-03T13:15:50.431Z,64.82
2019-04-03T13:18:19.907Z,64.71
2019-04-03T13:20:51.200Z,64.78
2019-04-03T13:23:20.244Z,66.61
2019-04-03T13:26:00.996Z,63.60
2019-04-03T13:28:30.649Z,62.96
2019-04-03T13:31:00.602Z,62.61
2019-04-03T13:33:30.027Z,62.05
2019-04-03T13:36:00.963Z,62.29
2019-04-03T13:38:30.150Z,62.66
2019-04-03T13:41:00.809Z,62.97
2019-04-03T13:43:32.550Z,64.65
2019-04-03T13:46:04.649Z,62.95
2019-04-03T13:48:36.202Z,65.96
2019-04-03T13:51:08.460Z,67.43
2019-04-03T13:53:39.847Z,68.82
2019-04-03T13:56:23.083Z,66.34
2019-04-03T13:58:53.614Z,66.93
2019-04-03T14:01:21.734Z,65.93
2019-04-03T14:03:51.527Z,64.39
2019-04-03T14:06:24.124Z,66.76
2019-04-03T14:08:53.175Z,66.11
2019-04-03T14:11:24.538Z,66.81
2019-04-03T14:13:54.126Z,67.52
2019-04-03T14:16:23.721Z,67.42
2019-04-03T14:18:55.495Z,69.55
2019-04-03T14:21:27.748Z,69.32
2019-04-03T14:23:57.244Z,70.75
2019-04-03T14:26:26.383Z,70.22
2019-04-03T14:28:55.770Z,67.65
2019-04-03T14:31:35.639Z,70.33
2019-04-03T14:34:01.660Z,69.12
2019-04-03T14:36:36.907Z,71.37
2019-04-03T14:39:09.037Z,70.95
2019-04-03T14:41:44.611Z,71.52
2019-04-03T14:44:14.926Z,70.96
2019-04-03T14:46:45.130Z,73.58
2019-04-03T14:49:16.748Z,73.63
2019-04-03T14:51:52.428Z,73.64
2019-04-03T14:54:24.601Z,76.27
2019-04-03T14:56:55.699Z,77.06
2019-04-03T14:59:30.270Z,76.94
2019-04-03T15:02:02.646Z,77.89
2019-04-03T15:04:37.462Z,78.77
2019-04-03T15:07:10.053Z,79.09
2019-04-03T15:09:39.919Z,80.65
2019-04-03T15:12:12.287Z,80.24
2019-04-03T15:14:45.987Z,78.78
2019-04-03T15:17:17.657Z,79.59
2019-04-03T15:19:46.697Z,79.96
2019-04-03T15:22:17.801Z,78.32
2019-04-03T15:24:46.882Z,80.20
2019-04-03T15:27:15.916Z,79.04
2019-04-03T15:29:45.274Z,78.68
2019-04-03T15:32:16.122Z,81.02
2019-04-03T15:34:46.419Z,81.58
2019-04-03T15:37:17.117Z,80.62
2019-04-03T15:39:49.255Z,81.71
2019-04-03T15:42:23.298Z,82.00
2019-04-03T15:44:53.308Z,81.76
2019-04-03T15:47:33.910Z,83.56
2019-04-03T15:49:58.264Z,86.06
2019-04-03T15:52:32.615Z,85.90
2019-04-03T15:55:03.990Z,84.92
2019-04-03T15:57:34.989Z,82.71
2019-04-03T16:00:09.823Z,84.36
2019-04-03T16:02:40.389Z,83.70
2019-04-03T16:05:09.781Z,82.74
2019-04-03T16:07:41.569Z,81.11
2019-04-03T16:10:21.771Z,81.63
2019-04-03T16:12:50.997Z,82.59
2019-04-03T16:15:22.434Z,81.59
2019-04-03T16:17:53.573Z,83.46
2019-04-03T16:20:23.653Z,82.01
2019-04-03T16:22:52.704Z,81.76
2019-04-03T16:25:22.305Z,82.64
2019-04-03T16:27:51.479Z,84.04
2019-04-03T16:30:31.863Z,82.25
2019-04-03T16:33:23.997Z,81.74
2019-04-03T16:35:54.300Z,83.14
2019-04-03T16:38:28.979Z,81.94
2019-04-03T16:40:59.607Z,83.95
2019-04-03T16:43:31.548Z,82.81
2019-04-03T16:46:01.341Z,82.40
2019-04-03T16:48:33.819Z,80.36
2019-04-03T16:51:03.035Z,81.73
2019-04-03T16:53:34.552Z,83.64
2019-04-03T16:56:05.417Z,81.02
2019-04-03T16:58:34.524Z,82.03
2019-04-03T17:01:06.717Z,82.21
2019-04-03T17:03:39.273Z,79.78
2019-04-03T17:06:08.937Z,76.80
2019-04-03T17:08:42.825Z,76.86
2019-04-03T17:11:14.811Z,79.42
2019-04-03T17:13:43.946Z,78.33
2019-04-03T17:16:14.742Z,78.10
2019-04-03T17:18:47.105Z,77.07
2019-04-03T17:21:14.696Z,75.79
2019-04-03T17:23:45.556Z,75.96
2019-04-03T17:26:18.077Z,76.52
2019-04-03T17:29:01.713Z,78.51
2019-04-03T17:31:22.911Z,76.43
2019-04-03T17:34:18.373Z,74.44
2019-04-03T17:36:52.587Z,76.17
2019-04-03T17:39:21.262Z,77.48
2019-04-03T17:41:50.301Z,77.34
2019-04-03T17:44:19.370Z,78.57
2019-04-03T17:46:49.449Z,77.51
2019-04-03T17:49:19.895Z,77.54
2019-04-03T17:51:51.492Z,75.78
2019-04-03T17:54:20.543Z,76.25
2019-04-03T17:56:49.589Z,79.55
2019-04-03T17:59:19.016Z,79.67
2019-04-03T18:01:48.462Z,77.39
2019-04-03T18:04:22.499Z,79.31
2019-04-03T18:06:53.869Z,78.87
2019-04-03T18:09:22.955Z,77.35
2019-04-03T18:11:52.900Z,76.92
2019-04-03T18:14:22.018Z,76.96
2019-04-03T18:16:51.098Z,76.05
2019-04-03T18:19:20.161Z,74.95
2019-04-03T18:21:49.484Z,77.24
2019-04-03T18:24:22.976Z,76.10
2019-04-03T18:26:58.102Z,74.53
2019-04-03T18:29:32.430Z,75.80
2019-04-03T18:32:01.476Z,74.80
2019-04-03T18:34:30.608Z,75.14
2019-04-03T18:36:59.661Z,74.38
2019-04-03T18:39:29.067Z,73.84
2019-04-03T18:41:58.158Z,72.57
2019-04-03T18:44:30.339Z,72.20
2019-04-03T18:47:01.845Z,72.51
2019-04-03T18:49:32.362Z,73.64
2019-04-03T18:52:01.962Z,72.27
2019-04-03T18:54:32.381Z,73.44
2019-04-03T18:57:10.454Z,74.69
2019-04-03T18:59:44.157Z,74.19
2019-04-03T19:02:14.101Z,73.67
2019-04-03T19:04:43.178Z,71.83
2019-04-03T19:07:15.947Z,72.07
2019-04-03T19:09:51.840Z,71.72
2019-04-03T19:12:21.550Z,72.05
2019-04-03T19:14:51.758Z,72.13
2019-04-03T19:17:27.577Z,72.46
2019-04-03T19:20:09.681Z,69.36
2019-04-03T19:22:30.696Z,67.78
2019-04-03T19:24:59.757Z,71.90
2019-04-03T19:27:28.847Z,71.61
2019-04-03T19:29:57.882Z,71.60
2019-04-03T19:32:26.961Z,70.88
2019-04-03T19:34:57.014Z,69.33
2019-04-03T19:37:26.104Z,70.77
2019-04-03T19:39:55.439Z,73.39
2019-04-03T19:42:26.059Z,73.48
2019-04-03T19:44:58.183Z,72.59
2019-04-03T19:47:27.359Z,71.00
2019-04-03T19:50:00.013Z,71.12
2019-04-03T19:52:30.935Z,71.25
2019-04-03T19:55:02.585Z,68.33
2019-04-03T19:57:31.995Z,68.22
2019-04-03T20:00:03.222Z,68.69
2019-04-03T20:02:38.332Z,70.03
2019-04-03T20:05:08.082Z,70.24
2019-04-03T20:07:37.199Z,71.27
2019-04-03T20:10:10.632Z,68.21
2019-04-03T20:12:42.740Z,68.40
2019-04-03T20:15:11.942Z,66.27
2019-04-03T20:17:44.256Z,67.97
2019-04-03T20:20:14.981Z,68.53
2019-04-03T20:22:44.198Z,68.33
2019-04-03T20:25:15.105Z,68.99
2019-04-03T20:27:49.326Z,68.53
2019-04-03T20:30:17.855Z,70.38
2019-04-03T20:32:47.364Z,71.19
2019-04-03T20:35:18.661Z,72.50
2019-04-03T20:37:47.321Z,71.82
2019-04-03T20:40:21.039Z,69.18
2019-04-03T20:42:51.217Z,69.67
2019-04-03T20:45:22.142Z,70.25
2019-04-03T20:48:01.908Z,70.55
2019-04-03T20:50:30.957Z,68.80
2019-04-03T20:53:00.037Z,69.46
2019-04-03T20:55:32.447Z,70.91
2019-04-03T20:58:01.512Z,68.74
2019-04-03T21:00:30.578Z,70.80
2019-04-03T21:03:05.596Z,69.86
2019-04-03T21:05:39.067Z,70.39
2019-04-03T21:08:18.772Z,68.97
2019-04-03T21:10:47.788Z,66.01
2019-04-03T21:13:17.858Z,66.78
2019-04-03T21:15:46.920Z,68.40
2019-04-03T21:18:18.949Z,67.26
2019-04-03T21:20:48.643Z,67.97
2019-04-03T21:23:18.093Z,67.11
2019-04-03T21:25:48.453Z,65.96
2019-04-03T21:28:17.492Z,66.72
2019-04-03T21:30:46.678Z,66.18
2019-04-03T21:33:18.660Z,66.05
2019-04-03T21:35:50.124Z,64.13
2019-04-03T21:38:19.180Z,64.12
2019-04-03T21:40:49.713Z,64.50
2019-04-03T21:43:23.696Z,66.09
2019-04-03T21:45:55.713Z,67.81
2019-04-03T21:48:31.323Z,67.75
2019-04-03T21:51:00.439Z,67.90
2019-04-03T21:53:29.490Z,67.67
2019-04-03T21:56:03.339Z,66.42
2019-04-03T21:58:35.533Z,65.95
2019-04-03T22:01:23.104Z,66.81
2019-04-03T22:03:54.743Z,67.39
2019-04-03T22:06:26.584Z,66.26
2019-04-03T22:08:59.697Z,65.03
2019-04-03T22:11:30.943Z,64.89
2019-04-03T22:14:00.259Z,66.49
2019-04-03T22:16:30.425Z,66.31
2019-04-03T22:19:03.938Z,66.66
2019-04-03T22:21:36.029Z,66.10
2019-04-03T22:24:06.877Z,67.05
2019-04-03T22:26:35.963Z,67.55
2019-04-03T22:29:11.221Z,67.94
2019-04-03T22:31:40.428Z,67.21
2019-04-03T22:34:10.802Z,66.26
2019-04-03T22:36:43.457Z,67.90
2019-04-03T22:39:13.746Z,69.47
2019-04-03T22:41:53.001Z,67.23
2019-04-03T22:44:22.067Z,68.51
2019-04-03T22:46:52.046Z,69.82
2019-04-03T22:49:22.298Z,69.26
2019-04-03T22:51:51.338Z,68.78
2019-04-03T22:54:20.906Z,68.30
2019-04-03T22:56:50.350Z,69.71
2019-04-03T22:59:19.512Z,69.89
2019-04-03T23:01:55.754Z,69.92
2019-04-03T23:04:27.733Z,71.53
2019-04-03T23:06:58.785Z,69.04
2019-04-03T23:09:27.950Z,70.70
2019-04-03T23:12:01.036Z,69.99
2019-04-03T23:14:33.214Z,68.29
2019-04-03T23:17:06.383Z,68.58
2019-04-03T23:19:37.083Z,68.66
2019-04-03T23:22:11.022Z,68.37
2019-04-03T23:24:43.524Z,66.54
2019-04-03T23:27:22.521Z,67.65
2019-04-03T23:29:51.632Z,68.80
2019-04-03T23:32:25.110Z,69.96
2019-04-03T23:34:54.445Z,70.19
2019-04-03T23:37:24.886Z,69.83
2019-04-03T23:39:54.345Z,69.60
2019-04-03T23:42:25.203Z,67.58
2019-04-03T23:44:55.076Z,69.01
2019-04-03T23:47:26.952Z,67.77
2019-04-03T23:49:58.203Z,69.27
2019-04-03T23:52:30.760Z,69.69
2019-04-03T23:55:00.939Z,69.20
2019-04-03T23:57:30.359Z,67.89
